createdAt,value
2018-01-08T00:00:22.008Z,7.30
2018-01-08T00:01:21.995Z,7.50
2018-01-08T00:02:21.975Z,7.50
2018-01-08T00:03:21.963Z,7.30
2018-01-08T00:04:21.949Z,7.40
2018-01-08T00:05:21.944Z,7.10
2018-01-08T00:06:21.925Z,8.20
2018-01-08T00:07:21.902Z,7.30
2018-01-08T00:08:21.890Z,8.60
2018-01-08T00:09:21.875Z,7.50
2018-01-08T00:10:21.864Z,7.20
2018-01-08T00:11:21.869Z,7.20
2018-01-08T00:12:21.837Z,7.50
2018-01-08T00:13:21.830Z,7.40
2018-01-08T00:14:21.807Z,7.30
2018-01-08T00:15:21.800Z,6.80
2018-01-08T00:16:21.774Z,6.80
2018-01-08T00:17:21.769Z,7.20
2018-01-08T00:18:21.774Z,6.80
2018-01-08T00:19:21.755Z,7.40
2018-01-08T00:20:21.718Z,7.20
2018-01-08T00:21:21.710Z,6.60
2018-01-08T00:22:21.688Z,7.00
2018-01-08T00:23:21.672Z,6.80
2018-01-08T00:24:21.685Z,7.70
2018-01-08T00:25:21.658Z,7.40
2018-01-08T00:26:21.653Z,7.30
2018-01-08T00:27:21.617Z,7.50
2018-01-08T00:28:21.615Z,7.00
2018-01-08T00:29:21.588Z,7.60
2018-01-08T00:30:21.575Z,6.80
2018-01-08T00:31:21.584Z,7.10
2018-01-08T00:32:21.554Z,7.00
2018-01-08T00:33:21.537Z,7.10
2018-01-08T00:34:21.528Z,7.70
2018-01-08T00:35:21.528Z,6.90
2018-01-08T00:36:21.488Z,7.00
2018-01-08T00:37:21.492Z,7.60
2018-01-08T00:38:21.474Z,7.20
2018-01-08T00:39:21.450Z,7.80
2018-01-08T00:40:21.436Z,7.30
2018-01-08T00:41:21.421Z,7.50
2018-01-08T00:42:21.402Z,7.30
2018-01-08T00:43:21.398Z,6.80
2018-01-08T00:44:21.375Z,7.20
2018-01-08T00:45:21.390Z,7.10
2018-01-08T00:46:21.375Z,7.50
2018-01-08T00:47:21.346Z,7.00
2018-01-08T00:48:21.320Z,7.90
2018-01-08T00:49:21.308Z,6.50
2018-01-08T00:50:21.301Z,6.90
2018-01-08T00:51:21.309Z,7.00
2018-01-08T00:52:21.262Z,7.30
2018-01-08T00:53:21.252Z,7.30
2018-01-08T00:54:21.236Z,7.20
2018-01-08T00:55:21.221Z,7.30
2018-01-08T00:56:21.208Z,7.40
2018-01-08T00:57:21.219Z,7.70
2018-01-08T00:58:21.180Z,7.20
2018-01-08T00:59:21.182Z,7.20
2018-01-08T01:00:21.157Z,7.20
2018-01-08T01:01:21.134Z,7.40
2018-01-08T01:02:21.122Z,7.30
2018-01-08T01:03:21.109Z,7.90
2018-01-08T01:04:21.093Z,6.90
2018-01-08T01:05:21.092Z,8.00
2018-01-08T01:06:21.072Z,7.00
2018-01-08T01:07:21.065Z,7.20
2018-01-08T01:08:21.046Z,7.00
2018-01-08T01:09:21.022Z,7.10
2018-01-08T01:10:21.021Z,6.70
2018-01-08T01:11:21.004Z,7.10
2018-01-08T01:12:20.980Z,7.20
2018-01-08T01:13:20.979Z,7.50
2018-01-08T01:14:20.957Z,7.60
2018-01-08T01:15:20.941Z,7.50
2018-01-08T01:16:56.811Z,7.10
2018-01-08T01:17:21.720Z,7.50
2018-01-08T01:18:20.902Z,7.10
2018-01-08T01:19:20.900Z,7.30
2018-01-08T01:20:20.886Z,7.70
2018-01-08T01:21:20.854Z,7.10
2018-01-08T01:22:20.841Z,7.30
2018-01-08T01:23:20.833Z,7.10
2018-01-08T01:24:20.814Z,7.70
2018-01-08T01:25:20.815Z,7.00
2018-01-08T01:26:20.786Z,7.20
2018-01-08T01:27:20.797Z,6.40
2018-01-08T01:28:20.759Z,7.30
2018-01-08T01:29:21.722Z,7.20
2018-01-08T01:30:20.733Z,7.40
2018-01-08T01:31:20.742Z,7.00
2018-01-08T01:32:20.705Z,7.50
2018-01-08T01:33:20.694Z,7.10
2018-01-08T01:34:20.679Z,7.10
2018-01-08T01:35:20.658Z,7.30
2018-01-08T01:36:20.669Z,7.00
2018-01-08T01:37:20.634Z,7.90
2018-01-08T01:38:20.621Z,7.20
2018-01-08T01:39:20.605Z,7.20
2018-01-08T01:40:20.611Z,7.70
2018-01-08T01:41:20.582Z,7.60
2018-01-08T01:42:20.569Z,7.20
2018-01-08T01:43:20.553Z,7.00
2018-01-08T01:44:20.539Z,7.40
2018-01-08T01:45:20.522Z,7.20
2018-01-08T01:46:20.528Z,7.40
2018-01-08T01:47:20.498Z,7.40
2018-01-08T01:48:20.488Z,7.10
2018-01-08T01:49:20.473Z,7.80
2018-01-08T01:50:20.457Z,7.30
2018-01-08T01:51:20.438Z,7.30
2018-01-08T01:52:20.427Z,7.20
2018-01-08T01:53:20.414Z,7.30
2018-01-08T01:54:20.399Z,7.50
2018-01-08T01:55:20.388Z,7.30
2018-01-08T01:56:20.373Z,7.60
2018-01-08T01:57:20.356Z,7.10
2018-01-08T01:58:20.354Z,7.30
2018-01-08T01:59:20.370Z,7.50
2018-01-08T02:00:20.331Z,7.40
2018-01-08T02:01:20.302Z,7.30
2018-01-08T02:02:20.296Z,7.50
2018-01-08T02:03:20.277Z,7.90
2018-01-08T02:04:20.261Z,7.60
2018-01-08T02:05:20.251Z,7.80
2018-01-08T02:06:20.253Z,7.90
2018-01-08T02:07:20.219Z,7.30
2018-01-08T02:08:20.210Z,7.40
2018-01-08T02:09:20.202Z,7.30
2018-01-08T02:10:20.177Z,8.10
2018-01-08T02:11:20.164Z,7.60
2018-01-08T02:12:20.154Z,8.30
2018-01-08T02:13:20.148Z,7.30
2018-01-08T02:14:20.139Z,7.90
2018-01-08T02:15:20.114Z,8.30
2018-01-08T02:16:20.094Z,7.60
2018-01-08T02:17:20.082Z,7.80
2018-01-08T02:18:20.069Z,7.80
2018-01-08T02:19:20.054Z,7.70
2018-01-08T02:20:20.062Z,7.70
2018-01-08T02:21:20.029Z,7.80
2018-01-08T02:22:20.028Z,8.20
2018-01-08T02:23:19.999Z,7.60
2018-01-08T02:24:19.985Z,7.60
2018-01-08T02:25:19.972Z,7.90
2018-01-08T02:26:19.960Z,8.20
2018-01-08T02:27:19.941Z,8.00
2018-01-08T02:28:19.929Z,7.60
2018-01-08T02:29:19.925Z,7.80
2018-01-08T02:30:19.903Z,7.90
2018-01-08T02:31:19.891Z,7.90
2018-01-08T02:32:19.873Z,8.30
2018-01-08T02:33:19.864Z,8.10
2018-01-08T02:34:19.849Z,7.50
2018-01-08T02:35:19.834Z,7.90
2018-01-08T02:36:19.821Z,8.40
2018-01-08T02:37:19.814Z,7.50
2018-01-08T02:38:19.793Z,7.60
2018-01-08T02:39:19.782Z,7.60
2018-01-08T02:40:19.813Z,7.80
2018-01-08T02:41:19.760Z,7.90
2018-01-08T02:42:19.740Z,7.60
2018-01-08T02:43:19.733Z,8.00
2018-01-08T02:44:19.720Z,7.90
2018-01-08T02:45:19.700Z,7.70
2018-01-08T02:46:19.707Z,7.70
2018-01-08T02:47:19.676Z,8.20
2018-01-08T02:48:19.691Z,7.70
2018-01-08T02:49:19.642Z,8.00
2018-01-08T02:50:19.628Z,7.70
2018-01-08T02:51:19.614Z,7.60
2018-01-08T02:52:19.599Z,8.30
2018-01-08T02:53:19.587Z,8.20
2018-01-08T02:54:19.580Z,7.50
2018-01-08T02:55:19.558Z,7.60
2018-01-08T02:56:19.569Z,8.00
2018-01-08T02:57:19.530Z,7.80
2018-01-08T02:58:19.522Z,8.30
2018-01-08T02:59:19.507Z,7.50
2018-01-08T03:00:19.491Z,7.60
2018-01-08T03:01:19.477Z,7.00
2018-01-08T03:02:19.470Z,7.70
2018-01-08T03:03:19.450Z,8.50
2018-01-08T03:04:19.442Z,7.20
2018-01-08T03:05:19.420Z,7.30
2018-01-08T03:06:19.411Z,8.10
2018-01-08T03:07:19.414Z,7.60
2018-01-08T03:08:19.397Z,7.60
2018-01-08T03:09:19.370Z,7.30
2018-01-08T03:10:19.357Z,7.20
2018-01-08T03:11:19.339Z,7.20
2018-01-08T03:12:19.329Z,7.20
2018-01-08T03:13:19.314Z,7.80
2018-01-08T03:14:19.302Z,7.80
2018-01-08T03:15:19.289Z,7.50
2018-01-08T03:16:19.277Z,8.00
2018-01-08T03:17:19.269Z,7.20
2018-01-08T03:18:19.244Z,7.40
2018-01-08T03:19:19.233Z,7.90
2018-01-08T03:20:19.215Z,7.20
2018-01-08T03:21:19.206Z,7.50
2018-01-08T03:22:19.194Z,7.70
2018-01-08T03:23:19.176Z,7.20
2018-01-08T03:24:19.175Z,7.10
2018-01-08T03:25:19.152Z,8.30
2018-01-08T03:26:19.137Z,7.60
2018-01-08T03:27:19.125Z,7.60
2018-01-08T03:28:19.106Z,7.10
2018-01-08T03:29:19.093Z,7.60
2018-01-08T03:30:19.089Z,8.00
2018-01-08T03:31:19.067Z,7.60
2018-01-08T03:32:19.061Z,6.90
2018-01-08T03:33:19.041Z,7.10
2018-01-08T03:34:19.026Z,7.40
2018-01-08T03:35:19.014Z,7.40
2018-01-08T03:36:18.999Z,7.90
2018-01-08T03:37:18.986Z,7.50
2018-01-08T03:38:18.979Z,7.50
2018-01-08T03:39:18.955Z,6.90
2018-01-08T03:40:18.943Z,7.30
2018-01-08T03:41:18.928Z,7.40
2018-01-08T03:42:18.922Z,7.80
2018-01-08T03:43:18.906Z,7.90
2018-01-08T03:44:18.891Z,7.50
2018-01-08T03:45:18.899Z,7.40
2018-01-08T03:46:18.863Z,7.60
2018-01-08T03:47:18.852Z,7.40
2018-01-08T03:48:18.833Z,7.30
2018-01-08T03:49:18.817Z,7.40
2018-01-08T03:50:18.840Z,7.80
2018-01-08T03:51:18.797Z,7.50
2018-01-08T03:52:18.783Z,7.20
2018-01-08T03:53:18.769Z,7.70
2018-01-08T03:54:18.776Z,7.60
2018-01-08T03:55:18.751Z,7.30
2018-01-08T03:56:18.729Z,7.50
2018-01-08T03:57:18.745Z,7.20
2018-01-08T03:58:18.713Z,7.60
2018-01-08T03:59:18.707Z,7.40
2018-01-08T04:00:18.675Z,7.90
2018-01-08T04:01:18.657Z,7.40
2018-01-08T04:02:18.643Z,7.60
2018-01-08T04:03:18.643Z,7.30
2018-01-08T04:04:18.623Z,7.30
2018-01-08T04:05:18.603Z,7.10
2018-01-08T04:06:18.590Z,7.10
2018-01-08T04:07:18.574Z,7.60
2018-01-08T04:08:18.559Z,6.70
2018-01-08T04:09:18.549Z,7.30
2018-01-08T04:10:18.541Z,6.50
2018-01-08T04:11:18.523Z,7.60
2018-01-08T04:12:18.505Z,7.40
2018-01-08T04:13:18.498Z,7.90
2018-01-08T04:14:18.482Z,7.30
2018-01-08T04:15:18.476Z,7.80
2018-01-08T04:16:18.450Z,7.80
2018-01-08T04:17:18.443Z,7.00
2018-01-08T04:18:18.425Z,6.50
2018-01-08T04:19:18.413Z,7.30
2018-01-08T04:20:18.402Z,7.60
2018-01-08T04:21:18.383Z,6.90
2018-01-08T04:22:18.371Z,7.50
2018-01-08T04:23:18.366Z,7.20
2018-01-08T04:24:18.344Z,7.00
2018-01-08T04:25:18.333Z,7.30
2018-01-08T04:26:18.319Z,7.40
2018-01-08T04:27:18.302Z,7.90
2018-01-08T04:28:18.292Z,7.10
2018-01-08T04:29:18.278Z,7.20
2018-01-08T04:30:18.263Z,7.60
2018-01-08T04:31:18.249Z,7.30
2018-01-08T04:32:18.238Z,7.30
2018-01-08T04:33:18.227Z,7.00
2018-01-08T04:34:18.209Z,7.10
2018-01-08T04:35:18.198Z,7.30
2018-01-08T04:36:18.182Z,7.00
2018-01-08T04:37:18.172Z,7.40
2018-01-08T04:38:18.164Z,7.20
2018-01-08T04:39:18.163Z,7.80
2018-01-08T04:40:18.130Z,8.10
2018-01-08T04:41:18.112Z,7.50
2018-01-08T04:42:18.101Z,7.60
2018-01-08T04:43:18.084Z,7.90
2018-01-08T04:44:18.100Z,7.90
2018-01-08T04:45:18.058Z,7.70
2018-01-08T04:46:18.064Z,7.90
2018-01-08T04:47:18.040Z,7.90
2018-01-08T04:48:18.028Z,7.70
2018-01-08T04:49:18.013Z,7.90
2018-01-08T04:50:17.990Z,7.90
2018-01-08T04:51:17.981Z,7.90
2018-01-08T04:52:17.964Z,7.40
2018-01-08T04:53:17.962Z,8.40
2018-01-08T04:54:17.935Z,8.10
2018-01-08T04:55:17.924Z,8.00
2018-01-08T04:56:17.911Z,8.00
2018-01-08T04:57:17.892Z,7.40
2018-01-08T04:58:17.880Z,8.00
2018-01-08T04:59:17.878Z,7.60
2018-01-08T05:00:17.854Z,7.80
2018-01-08T05:01:17.838Z,7.90
2018-01-08T05:02:17.825Z,7.50
2018-01-08T05:03:17.815Z,7.90
2018-01-08T05:04:17.800Z,8.20
2018-01-08T05:05:17.787Z,8.10
2018-01-08T05:06:17.776Z,8.20
2018-01-08T05:07:17.760Z,8.00
2018-01-08T05:08:17.745Z,8.00
2018-01-08T05:09:17.734Z,7.40
2018-01-08T05:10:17.723Z,7.50
2018-01-08T05:11:17.705Z,7.90
2018-01-08T05:12:17.692Z,8.00
2018-01-08T05:13:17.687Z,8.20
2018-01-08T05:14:17.665Z,8.00
2018-01-08T05:15:17.648Z,8.30
2018-01-08T05:16:17.637Z,8.20
2018-01-08T05:17:17.621Z,8.20
2018-01-08T05:18:17.606Z,7.90
2018-01-08T05:19:17.595Z,8.00
2018-01-08T05:20:17.587Z,8.40
2018-01-08T05:21:17.569Z,8.30
2018-01-08T05:22:17.559Z,8.70
2018-01-08T05:23:17.555Z,7.60
2018-01-08T05:24:17.526Z,8.00
2018-01-08T05:25:17.512Z,7.80
2018-01-08T05:26:17.503Z,7.80
2018-01-08T05:27:17.487Z,7.90
2018-01-08T05:28:17.477Z,7.70
2018-01-08T05:29:17.463Z,8.50
2018-01-08T05:30:17.448Z,8.70
2018-01-08T05:31:17.432Z,7.50
2018-01-08T05:32:17.425Z,8.60
2018-01-08T05:33:17.407Z,8.00
2018-01-08T05:34:17.393Z,8.20
2018-01-08T05:35:17.379Z,8.70
2018-01-08T05:36:17.362Z,8.10
2018-01-08T05:37:17.358Z,8.70
2018-01-08T05:38:17.336Z,8.30
2018-01-08T05:39:17.327Z,8.30
2018-01-08T05:40:17.311Z,8.40
2018-01-08T05:41:17.294Z,8.80
2018-01-08T05:42:17.283Z,8.70
2018-01-08T05:43:17.270Z,8.40
2018-01-08T05:44:17.257Z,8.30
2018-01-08T05:45:17.238Z,8.70
2018-01-08T05:46:17.229Z,8.70
2018-01-08T05:47:17.223Z,8.70
2018-01-08T05:48:17.206Z,9.60
2018-01-08T05:49:17.188Z,9.50
2018-01-08T05:50:17.174Z,8.50
2018-01-08T05:51:17.163Z,9.00
2018-01-08T05:52:17.148Z,8.40
2018-01-08T05:53:17.135Z,9.10
2018-01-08T05:54:17.127Z,8.60
2018-01-08T05:55:17.115Z,8.70
2018-01-08T05:56:17.089Z,8.80
2018-01-08T05:57:17.080Z,9.00
2018-01-08T05:58:17.063Z,9.40
2018-01-08T05:59:17.052Z,8.70
2018-01-08T06:00:17.039Z,8.50
2018-01-08T06:01:17.021Z,9.00
2018-01-08T06:02:17.019Z,8.90
2018-01-08T06:03:16.998Z,8.60
2018-01-08T06:04:16.983Z,9.20
2018-01-08T06:05:16.970Z,8.10
2018-01-08T06:06:16.953Z,9.00
2018-01-08T06:07:16.937Z,9.10
2018-01-08T06:08:16.927Z,8.60
2018-01-08T06:09:16.917Z,8.90
2018-01-08T06:10:16.913Z,9.10
2018-01-08T06:11:16.890Z,8.90
2018-01-08T06:12:16.878Z,8.80
2018-01-08T06:13:16.863Z,8.20
2018-01-08T06:14:16.916Z,9.60
2018-01-08T06:15:16.831Z,9.70
2018-01-08T06:16:16.822Z,8.70
2018-01-08T06:17:16.803Z,9.00
2018-01-08T06:18:16.795Z,9.20
2018-01-08T06:19:16.779Z,9.20
2018-01-08T06:20:16.763Z,9.60
2018-01-08T06:21:16.752Z,9.70
2018-01-08T06:22:16.738Z,9.90
2018-01-08T06:23:16.721Z,9.00
2018-01-08T06:24:16.734Z,9.60
2018-01-08T06:25:16.692Z,9.10
2018-01-08T06:26:16.686Z,8.80
2018-01-08T06:27:16.695Z,8.90
2018-01-08T06:28:16.658Z,9.50
2018-01-08T06:29:16.644Z,9.40
2018-01-08T06:30:16.624Z,9.80
2018-01-08T06:31:16.619Z,10.10
2018-01-08T06:32:16.599Z,9.80
2018-01-08T06:33:16.596Z,9.20
2018-01-08T06:34:16.583Z,9.40
2018-01-08T06:35:16.559Z,9.50
2018-01-08T06:36:16.569Z,9.90
2018-01-08T06:37:16.531Z,9.60
2018-01-08T06:38:16.520Z,10.10
2018-01-08T06:39:16.507Z,9.60
2018-01-08T06:40:16.502Z,10.20
2018-01-08T06:41:16.478Z,10.10
2018-01-08T06:42:16.464Z,9.60
2018-01-08T06:43:16.474Z,9.30
2018-01-08T06:44:16.444Z,9.60
2018-01-08T06:45:16.425Z,10.10
2018-01-08T06:46:16.407Z,10.10
2018-01-08T06:47:16.428Z,10.90
2018-01-08T06:48:16.382Z,10.00
2018-01-08T06:49:16.366Z,10.00
2018-01-08T06:50:16.351Z,10.20
2018-01-08T06:51:16.336Z,10.50
2018-01-08T06:52:16.363Z,10.40
2018-01-08T06:53:16.317Z,10.70
2018-01-08T06:54:16.298Z,10.50
2018-01-08T06:55:16.300Z,10.20
2018-01-08T06:56:16.270Z,9.90
2018-01-08T06:57:16.269Z,9.60
2018-01-08T06:58:16.247Z,10.20
2018-01-08T06:59:16.234Z,9.50
2018-01-08T07:00:16.217Z,10.60
2018-01-08T07:01:16.202Z,10.00
2018-01-08T07:02:16.213Z,10.40
2018-01-08T07:03:16.169Z,10.70
2018-01-08T07:04:16.160Z,10.80
2018-01-08T07:05:16.152Z,10.20
2018-01-08T07:06:16.186Z,11.10
2018-01-08T07:07:16.127Z,10.50
2018-01-08T07:08:16.371Z,10.70
2018-01-08T07:09:17.711Z,10.70
2018-01-08T07:10:16.090Z,10.90
2018-01-08T07:11:16.058Z,11.40
2018-01-08T07:12:16.055Z,10.50
2018-01-08T07:13:16.068Z,10.90
2018-01-08T07:14:16.021Z,10.70
2018-01-08T07:15:16.083Z,11.00
2018-01-08T07:16:16.003Z,11.20
2018-01-08T07:17:16.022Z,10.40
2018-01-08T07:18:15.971Z,11.50
2018-01-08T07:20:39.352Z,11.70
2018-01-08T07:21:39.059Z,11.80
2018-01-08T07:23:32.724Z,10.70
2018-01-08T07:24:32.647Z,11.00
2018-01-08T07:26:26.413Z,11.00
2018-01-08T07:27:26.251Z,11.30
2018-01-08T07:28:26.219Z,11.00
2018-01-08T07:29:26.218Z,11.40
2018-01-08T07:30:26.211Z,11.40
2018-01-08T07:31:26.181Z,11.10
2018-01-08T07:32:26.178Z,10.90
2018-01-08T07:33:26.146Z,11.30
2018-01-08T07:34:26.139Z,11.10
2018-01-08T07:35:26.121Z,11.80
2018-01-08T07:36:26.103Z,12.10
2018-01-08T07:37:26.107Z,11.20
2018-01-08T07:38:26.077Z,11.20
2018-01-08T07:39:26.063Z,10.80
2018-01-08T07:40:26.049Z,12.00
2018-01-08T07:41:26.043Z,11.60
2018-01-08T07:42:26.016Z,12.20
2018-01-08T07:43:26.005Z,11.50
2018-01-08T07:44:26.004Z,11.10
2018-01-08T07:45:26.002Z,11.80
2018-01-08T07:46:25.990Z,11.90
2018-01-08T07:47:25.965Z,11.70
2018-01-08T07:48:25.932Z,12.00
2018-01-08T07:49:25.930Z,12.30
2018-01-08T07:50:25.914Z,11.30
2018-01-08T07:51:25.898Z,11.10
2018-01-08T07:52:25.891Z,12.30
2018-01-08T07:53:25.867Z,10.60
2018-01-08T07:54:25.846Z,11.50
2018-01-08T07:55:25.835Z,11.20
2018-01-08T07:56:25.855Z,11.60
2018-01-08T07:57:25.808Z,11.70
2018-01-08T07:58:25.794Z,11.20
2018-01-08T07:59:25.777Z,11.90
2018-01-08T08:00:25.762Z,12.00
2018-01-08T08:01:25.750Z,11.30
2018-01-08T08:02:25.736Z,12.10
2018-01-08T08:03:25.740Z,11.60
2018-01-08T08:04:25.721Z,12.10
2018-01-08T08:05:25.694Z,11.90
2018-01-08T08:06:25.681Z,11.70
2018-01-08T08:07:25.694Z,11.30
2018-01-08T08:08:25.649Z,11.70
2018-01-08T08:09:25.638Z,11.60
2018-01-08T08:10:25.624Z,12.20
2018-01-08T08:11:25.610Z,11.70
2018-01-08T08:12:25.594Z,11.30
2018-01-08T08:13:25.581Z,11.20
2018-01-08T08:14:25.565Z,11.30
2018-01-08T08:15:25.549Z,11.60
2018-01-08T08:16:25.542Z,11.50
2018-01-08T08:17:25.526Z,12.10
2018-01-08T08:18:25.512Z,12.40
2018-01-08T08:19:25.492Z,11.30
2018-01-08T08:20:25.501Z,11.80
2018-01-08T08:21:25.475Z,11.60
2018-01-08T08:22:25.467Z,11.70
2018-01-08T08:23:25.442Z,11.20
2018-01-08T08:24:25.425Z,11.40
2018-01-08T08:25:25.413Z,11.40
2018-01-08T08:26:25.401Z,11.40
2018-01-08T08:27:25.384Z,11.00
2018-01-08T08:28:26.076Z,11.30
2018-01-08T08:29:25.354Z,11.20
2018-01-08T08:30:25.353Z,11.30
2018-01-08T08:31:25.352Z,10.50
2018-01-08T08:32:25.319Z,11.10
2018-01-08T08:33:25.308Z,11.50
2018-01-08T08:34:25.286Z,11.40
2018-01-08T08:35:25.290Z,11.90
2018-01-08T08:36:25.266Z,11.90
2018-01-08T08:37:25.243Z,10.90
2018-01-08T08:38:25.231Z,11.40
2018-01-08T08:39:25.217Z,11.00
2018-01-08T08:40:25.204Z,11.20
2018-01-08T08:41:25.191Z,10.80
2018-01-08T08:42:25.180Z,10.80
2018-01-08T08:43:25.164Z,10.60
2018-01-08T08:44:25.151Z,10.80
2018-01-08T08:45:25.156Z,10.90
2018-01-08T08:46:25.122Z,10.80
2018-01-08T08:47:25.117Z,10.00
2018-01-08T08:48:25.104Z,10.10
2018-01-08T08:49:25.092Z,11.30
2018-01-08T08:50:25.071Z,11.20
2018-01-08T08:51:25.070Z,10.60
2018-01-08T08:52:25.060Z,10.30
2018-01-08T08:53:25.031Z,10.70
2018-01-08T08:54:25.014Z,10.70
2018-01-08T08:55:25.030Z,10.60
2018-01-08T08:56:24.993Z,10.70
2018-01-08T08:57:24.978Z,11.10
2018-01-08T08:58:25.009Z,10.80
2018-01-08T08:59:24.950Z,11.30
2018-01-08T09:00:24.936Z,10.80
2018-01-08T09:01:24.921Z,11.20
2018-01-08T09:02:24.911Z,10.50
2018-01-08T09:03:24.916Z,10.80
2018-01-08T09:04:24.883Z,10.60
2018-01-08T09:05:24.867Z,10.80
2018-01-08T09:06:24.858Z,11.50
2018-01-08T09:07:24.852Z,11.50
2018-01-08T09:08:24.854Z,11.10
2018-01-08T09:09:24.818Z,11.60
2018-01-08T09:10:24.827Z,11.30
2018-01-08T09:11:24.811Z,11.20
2018-01-08T09:12:24.783Z,10.70
2018-01-08T09:13:24.813Z,10.70
2018-01-08T09:14:24.756Z,10.20
2018-01-08T09:15:24.744Z,10.40
2018-01-08T09:16:24.754Z,10.60
2018-01-08T09:17:24.717Z,10.30
2018-01-08T09:18:24.726Z,9.70
2018-01-08T09:19:24.714Z,10.30
2018-01-08T09:20:24.690Z,9.60
2018-01-08T09:21:24.672Z,9.90
2018-01-08T09:22:24.658Z,9.70
2018-01-08T09:23:24.656Z,10.10
2018-01-08T09:24:24.636Z,10.50
2018-01-08T09:25:24.621Z,10.00
2018-01-08T09:26:24.609Z,10.90
2018-01-08T09:27:24.595Z,9.10
2018-01-08T09:28:24.605Z,9.90
2018-01-08T09:29:24.572Z,10.90
2018-01-08T09:30:24.578Z,10.00
2018-01-08T09:31:24.548Z,9.50
2018-01-08T09:32:24.534Z,9.80
2018-01-08T09:33:24.531Z,10.20
2018-01-08T09:34:24.516Z,9.80
2018-01-08T09:35:24.498Z,10.10
2018-01-08T09:36:24.509Z,10.70
2018-01-08T09:37:24.492Z,10.30
2018-01-08T09:38:24.472Z,10.40
2018-01-08T09:39:24.459Z,10.00
2018-01-08T09:40:24.448Z,10.30
2018-01-08T09:41:24.449Z,9.80
2018-01-08T09:42:24.419Z,9.90
2018-01-08T09:43:24.406Z,10.20
2018-01-08T09:44:24.395Z,9.90
2018-01-08T09:45:24.386Z,9.90
2018-01-08T09:46:24.372Z,10.40
2018-01-08T09:47:24.363Z,9.60
2018-01-08T09:48:24.366Z,9.40
2018-01-08T09:49:24.336Z,9.90
2018-01-08T09:50:24.326Z,10.60
2018-01-08T09:51:24.345Z,9.90
2018-01-08T09:52:24.351Z,9.60
2018-01-08T09:53:24.345Z,9.70
2018-01-08T09:54:24.306Z,9.70
2018-01-08T09:55:24.279Z,10.40
2018-01-08T09:56:24.273Z,9.80
2018-01-08T09:57:24.326Z,9.80
2018-01-08T09:58:24.247Z,10.00
2018-01-08T09:59:24.224Z,9.80
2018-01-08T10:00:24.210Z,10.20
2018-01-08T10:01:24.204Z,9.70
2018-01-08T10:02:24.191Z,9.80
2018-01-08T10:03:24.178Z,9.80
2018-01-08T10:04:24.171Z,10.00
2018-01-08T10:05:24.163Z,9.10
2018-01-08T10:06:24.152Z,10.30
2018-01-08T10:07:24.133Z,10.40
2018-01-08T10:08:24.127Z,9.80
2018-01-08T10:09:24.162Z,9.90
2018-01-08T10:10:24.102Z,9.70
2018-01-08T10:11:24.091Z,9.70
2018-01-08T10:12:24.080Z,9.90
2018-01-08T10:13:24.067Z,10.40
2018-01-08T10:14:24.071Z,9.10
2018-01-08T10:15:24.046Z,9.20
2018-01-08T10:16:24.063Z,9.10
2018-01-08T10:17:24.070Z,10.20
2018-01-08T10:18:24.060Z,9.40
2018-01-08T10:19:24.020Z,8.70
2018-01-08T10:20:24.017Z,9.10
2018-01-08T10:21:23.980Z,9.60
2018-01-08T10:22:23.977Z,9.00
2018-01-08T10:23:23.973Z,9.20
2018-01-08T10:24:23.953Z,9.30
2018-01-08T10:25:23.945Z,9.30
2018-01-08T10:26:23.947Z,9.50
2018-01-08T10:27:23.917Z,8.70
2018-01-08T10:28:23.907Z,9.20
2018-01-08T10:29:23.898Z,9.40
2018-01-08T10:30:23.881Z,9.60
2018-01-08T10:31:23.870Z,9.00
2018-01-08T10:32:23.869Z,9.20
2018-01-08T10:33:23.857Z,10.50
2018-01-08T10:34:23.846Z,9.60
2018-01-08T10:35:23.828Z,9.70
2018-01-08T10:36:23.835Z,9.30
2018-01-08T10:37:23.809Z,9.30
2018-01-08T10:38:23.829Z,9.50
2018-01-08T10:39:23.787Z,9.20
2018-01-08T10:40:23.817Z,9.60
2018-01-08T10:41:23.765Z,9.10
2018-01-08T10:42:23.867Z,9.10
2018-01-08T10:43:23.742Z,9.20
2018-01-08T10:44:23.737Z,9.40
2018-01-08T10:45:23.723Z,8.80
2018-01-08T10:46:23.724Z,9.80
2018-01-08T10:47:23.702Z,9.30
2018-01-08T10:48:23.694Z,8.30
2018-01-08T10:49:23.681Z,8.60
2018-01-08T10:50:23.682Z,9.30
2018-01-08T10:51:23.662Z,8.70
2018-01-08T10:52:23.655Z,8.90
2018-01-08T10:53:23.647Z,9.70
2018-01-08T10:54:23.636Z,9.30
2018-01-08T10:55:23.628Z,8.90
2018-01-08T10:56:23.622Z,9.10
2018-01-08T10:57:23.610Z,8.90
2018-01-08T10:58:23.599Z,8.60
2018-01-08T10:59:23.652Z,9.10
2018-01-08T11:00:23.588Z,9.40
2018-01-08T11:01:23.573Z,9.00
2018-01-08T11:02:23.563Z,9.00
2018-01-08T11:03:23.574Z,8.80
2018-01-08T11:04:23.544Z,8.90
2018-01-08T11:05:23.534Z,9.00
2018-01-08T11:06:23.529Z,9.10
2018-01-08T11:07:23.520Z,8.60
2018-01-08T11:08:23.504Z,9.90
2018-01-08T11:09:23.493Z,8.90
2018-01-08T11:10:23.556Z,8.90
2018-01-08T11:11:23.475Z,8.30
2018-01-08T11:12:23.480Z,8.80
2018-01-08T11:13:23.460Z,9.10
2018-01-08T11:14:23.474Z,9.40
2018-01-08T11:15:23.467Z,9.40
2018-01-08T11:16:23.451Z,9.20
2018-01-08T11:17:23.455Z,9.10
2018-01-08T11:18:23.417Z,8.70
2018-01-08T11:19:23.410Z,9.50
2018-01-08T11:20:23.395Z,9.50
2018-01-08T11:21:23.491Z,9.10
2018-01-08T11:22:23.378Z,7.90
2018-01-08T11:23:23.416Z,9.20
2018-01-08T11:24:23.370Z,8.50
2018-01-08T11:25:23.352Z,8.70
2018-01-08T11:26:23.347Z,9.20
2018-01-08T11:27:23.364Z,9.00
2018-01-08T11:28:23.332Z,9.00
2018-01-08T11:29:23.313Z,8.70
2018-01-08T11:30:23.325Z,8.50
2018-01-08T11:31:23.297Z,8.80
2018-01-08T11:32:23.298Z,9.10
2018-01-08T11:33:23.283Z,9.50
2018-01-08T11:34:23.279Z,8.50
2018-01-08T11:35:23.292Z,9.60
2018-01-08T11:36:23.265Z,9.50
2018-01-08T11:37:23.248Z,9.50
2018-01-08T11:38:23.246Z,8.80
2018-01-08T11:39:23.226Z,9.10
2018-01-08T11:40:23.220Z,8.70
2018-01-08T11:41:23.234Z,8.50
2018-01-08T11:42:23.200Z,8.30
2018-01-08T11:43:23.191Z,8.50
2018-01-08T11:44:23.182Z,9.10
2018-01-08T11:45:23.176Z,9.50
2018-01-08T11:46:23.180Z,8.00
2018-01-08T11:47:23.158Z,8.70
2018-01-08T11:48:23.169Z,8.80
2018-01-08T11:49:23.143Z,9.00
2018-01-08T11:50:23.130Z,9.00
2018-01-08T11:51:23.133Z,9.60
2018-01-08T11:52:23.117Z,9.40
2018-01-08T11:53:23.108Z,8.60
2018-01-08T11:54:23.105Z,9.20
2018-01-08T11:55:23.091Z,8.90
2018-01-08T11:56:23.590Z,8.90
2018-01-08T11:57:23.080Z,8.60
2018-01-08T11:58:23.084Z,8.50
2018-01-08T11:59:23.082Z,8.30
2018-01-08T12:00:23.095Z,8.50
2018-01-08T12:01:23.043Z,8.60
2018-01-08T12:02:23.047Z,8.70
2018-01-08T12:03:23.028Z,8.10
2018-01-08T12:04:23.020Z,8.60
2018-01-08T12:05:23.019Z,9.30
2018-01-08T12:06:23.020Z,8.90
2018-01-08T12:07:23.013Z,9.50
2018-01-08T12:08:22.994Z,9.20
2018-01-08T12:09:22.986Z,9.70
2018-01-08T12:10:22.994Z,8.90
2018-01-08T12:11:23.024Z,8.70
2018-01-08T12:12:23.009Z,9.10
2018-01-08T12:13:22.989Z,9.40
2018-01-08T12:14:22.950Z,8.60
2018-01-08T12:15:22.944Z,8.80
2018-01-08T12:16:22.924Z,9.30
2018-01-08T12:17:22.945Z,9.00
2018-01-08T12:18:22.915Z,8.80
2018-01-08T12:19:22.925Z,8.70
2018-01-08T12:20:22.895Z,8.90
2018-01-08T12:21:22.885Z,9.50
2018-01-08T12:22:22.885Z,8.80
2018-01-08T12:23:22.874Z,9.30
2018-01-08T12:24:22.862Z,9.00
2018-01-08T12:25:22.877Z,9.70
2018-01-08T12:26:22.848Z,9.80
2018-01-08T12:27:22.837Z,8.80
2018-01-08T12:28:22.830Z,8.70
2018-01-08T12:29:22.822Z,9.20
2018-01-08T12:30:22.815Z,8.50
2018-01-08T12:31:22.809Z,9.40
2018-01-08T12:32:22.807Z,9.80
2018-01-08T12:33:22.792Z,9.70
2018-01-08T12:34:22.784Z,9.30
2018-01-08T12:35:22.781Z,9.90
2018-01-08T12:36:22.770Z,8.50
2018-01-08T12:37:22.763Z,9.50
2018-01-08T12:38:22.752Z,9.20
2018-01-08T12:39:22.745Z,8.50
2018-01-08T12:40:22.737Z,8.60
2018-01-08T12:41:22.730Z,9.40
2018-01-08T12:42:22.720Z,9.10
2018-01-08T12:43:22.707Z,9.10
2018-01-08T12:44:22.704Z,9.30
2018-01-08T12:45:22.694Z,9.00
2018-01-08T12:46:22.693Z,8.60
2018-01-08T12:47:22.678Z,8.70
2018-01-08T12:48:22.669Z,8.60
2018-01-08T12:49:22.662Z,8.90
2018-01-08T12:50:22.659Z,9.70
2018-01-08T12:51:22.644Z,9.10
2018-01-08T12:52:22.638Z,8.90
2018-01-08T12:53:22.629Z,9.10
2018-01-08T12:54:22.625Z,9.10
2018-01-08T12:55:22.615Z,8.40
2018-01-08T12:56:22.605Z,8.40
2018-01-08T12:57:22.598Z,8.40
2018-01-08T12:58:22.602Z,8.40
2018-01-08T12:59:22.582Z,7.80
2018-01-08T13:00:22.568Z,7.50
2018-01-08T13:01:22.563Z,8.20
2018-01-08T13:02:23.118Z,8.20
2018-01-08T13:03:22.544Z,8.60
2018-01-08T13:04:22.540Z,8.30
2018-01-08T13:05:22.527Z,8.50
2018-01-08T13:06:22.524Z,8.60
2018-01-08T13:07:22.517Z,8.30
2018-01-08T13:08:22.506Z,8.40
2018-01-08T13:09:22.498Z,8.00
2018-01-08T13:10:22.490Z,8.70
2018-01-08T13:11:22.483Z,7.40
2018-01-08T13:12:22.484Z,7.90
2018-01-08T13:13:22.513Z,8.00
2018-01-08T13:14:22.479Z,8.10
2018-01-08T13:15:22.441Z,7.90